sensor_id;sensor_type;location;lat;lon;timestamp;P1;durP1;ratioP1;P2;durP2;ratioP2
26838;SDS011;40088;51.214;6.786;2023-12-20T00:08:40;12.50;;;9.75;;
26838;SDS011;40088;51.214;6.786;2023-12-20T00:18:40;12.95;;;9.73;;
26838;SDS011;40088;51.214;6.786;2023-12-20T00:28:40;14.73;;;10.50;;
26838;SDS011;40088;51.214;6.786;2023-12-20T00:38:40;12.23;;;9.60;;
26838;SDS011;40088;51.214;6.786;2023-12-20T00:48:41;9.48;;;8.05;;
26838;SDS011;40088;51.214;6.786;2023-12-20T00:58:42;8.05;;;6.03;;
26838;SDS011;40088;51.214;6.786;2023-12-20T01:08:42;13.48;;;10.40;;
26838;SDS011;40088;51.214;6.786;2023-12-20T01:18:42;10.35;;;8.18;;
26838;SDS011;40088;51.214;6.786;2023-12-20T01:28:42;12.85;;;8.20;;
26838;SDS011;40088;51.214;6.786;2023-12-20T01:38:43;12.98;;;8.75;;
26838;SDS011;40088;51.214;6.786;2023-12-20T01:48:43;11.00;;;7.47;;
26838;SDS011;40088;51.214;6.786;2023-12-20T01:58:44;13.70;;;8.52;;
26838;SDS011;40088;51.214;6.786;2023-12-20T02:08:46;11.33;;;8.47;;
26838;SDS011;40088;51.214;6.786;2023-12-20T02:18:46;12.98;;;8.30;;
26838;SDS011;40088;51.214;6.786;2023-12-20T02:28:47;13.95;;;9.00;;
26838;SDS011;40088;51.214;6.786;2023-12-20T02:38:47;14.27;;;6.57;;
26838;SDS011;40088;51.214;6.786;2023-12-20T02:48:48;14.77;;;8.52;;
26838;SDS011;40088;51.214;6.786;2023-12-20T02:58:48;12.18;;;6.80;;
26838;SDS011;40088;51.214;6.786;2023-12-20T03:08:48;9.88;;;5.68;;
26838;SDS011;40088;51.214;6.786;2023-12-20T03:18:49;15.88;;;4.28;;
26838;SDS011;40088;51.214;6.786;2023-12-20T03:28:49;10.87;;;3.97;;
26838;SDS011;40088;51.214;6.786;2023-12-20T03:38:50;14.00;;;4.75;;
26838;SDS011;40088;51.214;6.786;2023-12-20T03:48:50;8.35;;;3.55;;
26838;SDS011;40088;51.214;6.786;2023-12-20T03:58:50;10.15;;;3.65;;
26838;SDS011;40088;51.214;6.786;2023-12-20T04:08:50;8.48;;;3.85;;
26838;SDS011;40088;51.214;6.786;2023-12-20T04:18:51;9.93;;;3.88;;
26838;SDS011;40088;51.214;6.786;2023-12-20T04:28:51;13.40;;;5.25;;
26838;SDS011;40088;51.214;6.786;2023-12-20T04:38:51;8.70;;;4.55;;
26838;SDS011;40088;51.214;6.786;2023-12-20T04:48:51;10.43;;;4.85;;
26838;SDS011;40088;51.214;6.786;2023-12-20T04:58:52;11.48;;;6.00;;
26838;SDS011;40088;51.214;6.786;2023-12-20T05:08:52;12.70;;;4.97;;
26838;SDS011;40088;51.214;6.786;2023-12-20T05:18:52;14.90;;;4.80;;
26838;SDS011;40088;51.214;6.786;2023-12-20T05:28:53;9.43;;;4.07;;
26838;SDS011;40088;51.214;6.786;2023-12-20T05:38:53;10.38;;;4.45;;
26838;SDS011;40088;51.214;6.786;2023-12-20T05:48:53;13.85;;;6.07;;
26838;SDS011;40088;51.214;6.786;2023-12-20T05:58:53;15.35;;;5.53;;
26838;SDS011;40088;51.214;6.786;2023-12-20T06:08:54;11.20;;;5.53;;
26838;SDS011;40088;51.214;6.786;2023-12-20T06:18:54;11.77;;;5.47;;
26838;SDS011;40088;51.214;6.786;2023-12-20T06:28:54;18.20;;;6.53;;
26838;SDS011;40088;51.214;6.786;2023-12-20T06:38:55;12.13;;;6.07;;
26838;SDS011;40088;51.214;6.786;2023-12-20T06:48:55;11.50;;;4.43;;
26838;SDS011;40088;51.214;6.786;2023-12-20T06:58:55;15.43;;;4.80;;
26838;SDS011;40088;51.214;6.786;2023-12-20T07:08:56;11.77;;;4.68;;
26838;SDS011;40088;51.214;6.786;2023-12-20T07:18:56;12.40;;;5.63;;
26838;SDS011;40088;51.214;6.786;2023-12-20T07:28:57;15.93;;;4.70;;
26838;SDS011;40088;51.214;6.786;2023-12-20T07:38:58;19.38;;;5.80;;
26838;SDS011;40088;51.214;6.786;2023-12-20T07:48:58;13.38;;;5.32;;
26838;SDS011;40088;51.214;6.786;2023-12-20T07:58:59;12.85;;;4.97;;
26838;SDS011;40088;51.214;6.786;2023-12-20T08:08:59;13.30;;;5.10;;
26838;SDS011;40088;51.214;6.786;2023-12-20T08:18:59;13.77;;;5.72;;
26838;SDS011;40088;51.214;6.786;2023-12-20T08:29:00;14.20;;;5.00;;
26838;SDS011;40088;51.214;6.786;2023-12-20T08:39:00;10.80;;;5.50;;
26838;SDS011;40088;51.214;6.786;2023-12-20T08:49:01;16.42;;;5.22;;
26838;SDS011;40088;51.214;6.786;2023-12-20T08:59:01;21.75;;;5.97;;
26838;SDS011;40088;51.214;6.786;2023-12-20T09:09:02;18.20;;;5.13;;
26838;SDS011;40088;51.214;6.786;2023-12-20T09:19:02;13.32;;;5.22;;
26838;SDS011;40088;51.214;6.786;2023-12-20T09:29:03;16.10;;;5.50;;
26838;SDS011;40088;51.214;6.786;2023-12-20T09:39:03;15.27;;;4.82;;
26838;SDS011;40088;51.214;6.786;2023-12-20T09:49:04;14.13;;;5.28;;
26838;SDS011;40088;51.214;6.786;2023-12-20T09:59:05;12.30;;;5.28;;
26838;SDS011;40088;51.214;6.786;2023-12-20T10:09:06;14.85;;;4.68;;
26838;SDS011;40088;51.214;6.786;2023-12-20T10:19:06;12.02;;;4.80;;
26838;SDS011;40088;51.214;6.786;2023-12-20T10:29:06;14.18;;;4.70;;
26838;SDS011;40088;51.214;6.786;2023-12-20T10:39:07;17.65;;;5.10;;
26838;SDS011;40088;51.214;6.786;2023-12-20T10:49:10;11.30;;;4.47;;
26838;SDS011;40088;51.214;6.786;2023-12-20T10:59:10;12.67;;;4.90;;
26838;SDS011;40088;51.214;6.786;2023-12-20T11:09:28;16.10;;;6.22;;
26838;SDS011;40088;51.214;6.786;2023-12-20T11:19:38;12.40;;;4.75;;
26838;SDS011;40088;51.214;6.786;2023-12-20T11:30:04;13.95;;;5.00;;
26838;SDS011;40088;51.214;6.786;2023-12-20T11:40:12;10.98;;;4.15;;
26838;SDS011;40088;51.214;6.786;2023-12-20T11:50:15;10.70;;;4.85;;
26838;SDS011;40088;51.214;6.786;2023-12-20T12:00:16;12.07;;;4.65;;
26838;SDS011;40088;51.214;6.786;2023-12-20T12:10:17;12.25;;;4.40;;
26838;SDS011;40088;51.214;6.786;2023-12-20T12:20:19;12.65;;;4.57;;
26838;SDS011;40088;51.214;6.786;2023-12-20T12:30:20;13.07;;;4.30;;
26838;SDS011;40088;51.214;6.786;2023-12-20T12:40:21;11.65;;;4.80;;
26838;SDS011;40088;51.214;6.786;2023-12-20T12:50:21;11.55;;;4.63;;
26838;SDS011;40088;51.214;6.786;2023-12-20T13:00:21;10.45;;;4.50;;
26838;SDS011;40088;51.214;6.786;2023-12-20T13:10:22;10.55;;;4.88;;
26838;SDS011;40088;51.214;6.786;2023-12-20T13:20:23;8.75;;;4.88;;
26838;SDS011;40088;51.214;6.786;2023-12-20T13:30:23;11.85;;;5.25;;
26838;SDS011;40088;51.214;6.786;2023-12-20T13:40:23;12.48;;;5.47;;
26838;SDS011;40088;51.214;6.786;2023-12-20T13:50:24;12.88;;;4.85;;
26838;SDS011;40088;51.214;6.786;2023-12-20T14:00:24;11.55;;;5.13;;
26838;SDS011;40088;51.214;6.786;2023-12-20T14:10:24;11.60;;;6.07;;
26838;SDS011;40088;51.214;6.786;2023-12-20T14:20:27;7.85;;;4.75;;
26838;SDS011;40088;51.214;6.786;2023-12-20T14:30:29;9.00;;;5.00;;
26838;SDS011;40088;51.214;6.786;2023-12-20T14:40:29;10.70;;;5.65;;
26838;SDS011;40088;51.214;6.786;2023-12-20T14:50:30;10.18;;;5.38;;
26838;SDS011;40088;51.214;6.786;2023-12-20T15:00:31;12.75;;;5.63;;
26838;SDS011;40088;51.214;6.786;2023-12-20T15:10:31;12.73;;;5.20;;
26838;SDS011;40088;51.214;6.786;2023-12-20T15:20:31;10.65;;;4.80;;
26838;SDS011;40088;51.214;6.786;2023-12-20T15:30:33;10.38;;;5.15;;
26838;SDS011;40088;51.214;6.786;2023-12-20T15:40:34;11.70;;;5.45;;
26838;SDS011;40088;51.214;6.786;2023-12-20T15:50:34;10.38;;;4.80;;
26838;SDS011;40088;51.214;6.786;2023-12-20T16:00:35;10.50;;;4.68;;
26838;SDS011;40088;51.214;6.786;2023-12-20T16:10:35;9.57;;;4.60;;
26838;SDS011;40088;51.214;6.786;2023-12-20T16:20:36;10.88;;;5.72;;
26838;SDS011;40088;51.214;6.786;2023-12-20T16:30:39;9.13;;;4.97;;
26838;SDS011;40088;51.214;6.786;2023-12-20T16:40:39;14.68;;;5.38;;
26838;SDS011;40088;51.214;6.786;2023-12-20T16:50:40;13.68;;;4.30;;
26838;SDS011;40088;51.214;6.786;2023-12-20T17:00:40;10.73;;;4.28;;
26838;SDS011;40088;51.214;6.786;2023-12-20T17:10:40;13.82;;;4.40;;
26838;SDS011;40088;51.214;6.786;2023-12-20T17:20:41;11.55;;;5.30;;
26838;SDS011;40088;51.214;6.786;2023-12-20T17:30:41;16.25;;;6.65;;
26838;SDS011;40088;51.214;6.786;2023-12-20T17:40:41;12.07;;;6.55;;
26838;SDS011;40088;51.214;6.786;2023-12-20T17:50:42;15.35;;;6.68;;
26838;SDS011;40088;51.214;6.786;2023-12-20T18:00:42;14.02;;;6.13;;
26838;SDS011;40088;51.214;6.786;2023-12-20T18:10:43;12.48;;;7.15;;
26838;SDS011;40088;51.214;6.786;2023-12-20T18:20:43;11.93;;;5.47;;
26838;SDS011;40088;51.214;6.786;2023-12-20T18:30:43;12.63;;;5.53;;
26838;SDS011;40088;51.214;6.786;2023-12-20T18:40:43;11.98;;;5.35;;
26838;SDS011;40088;51.214;6.786;2023-12-20T18:50:47;13.13;;;5.68;;
26838;SDS011;40088;51.214;6.786;2023-12-20T19:00:47;12.15;;;5.95;;
26838;SDS011;40088;51.214;6.786;2023-12-20T19:10:48;10.25;;;5.53;;
26838;SDS011;40088;51.214;6.786;2023-12-20T19:20:48;12.65;;;6.57;;
26838;SDS011;40088;51.214;6.786;2023-12-20T19:30:48;9.90;;;6.75;;
26838;SDS011;40088;51.214;6.786;2023-12-20T19:40:48;8.27;;;5.32;;
26838;SDS011;40088;51.214;6.786;2023-12-20T19:50:49;13.60;;;7.97;;
26838;SDS011;40088;51.214;6.786;2023-12-20T20:00:51;14.50;;;7.57;;
26838;SDS011;40088;51.214;6.786;2023-12-20T20:10:51;13.55;;;6.40;;
26838;SDS011;40088;51.214;6.786;2023-12-20T20:20:51;12.95;;;6.53;;
26838;SDS011;40088;51.214;6.786;2023-12-20T20:30:52;11.10;;;6.90;;
26838;SDS011;40088;51.214;6.786;2023-12-20T20:40:52;17.90;;;9.98;;
26838;SDS011;40088;51.214;6.786;2023-12-20T20:50:54;8.93;;;5.22;;
26838;SDS011;40088;51.214;6.786;2023-12-20T21:00:58;12.30;;;7.50;;
26838;SDS011;40088;51.214;6.786;2023-12-20T21:10:58;16.73;;;7.47;;
26838;SDS011;40088;51.214;6.786;2023-12-20T21:20:58;13.60;;;6.68;;
26838;SDS011;40088;51.214;6.786;2023-12-20T21:30:59;11.75;;;6.68;;
26838;SDS011;40088;51.214;6.786;2023-12-20T21:41:00;10.52;;;6.22;;
26838;SDS011;40088;51.214;6.786;2023-12-20T21:51:00;11.63;;;5.03;;
26838;SDS011;40088;51.214;6.786;2023-12-20T22:01:00;12.88;;;7.78;;
26838;SDS011;40088;51.214;6.786;2023-12-20T22:11:00;10.15;;;6.20;;
26838;SDS011;40088;51.214;6.786;2023-12-20T22:21:01;10.43;;;6.32;;
26838;SDS011;40088;51.214;6.786;2023-12-20T22:31:01;11.05;;;5.68;;
26838;SDS011;40088;51.214;6.786;2023-12-20T22:41:02;14.68;;;9.18;;
26838;SDS011;40088;51.214;6.786;2023-12-20T22:51:02;10.73;;;7.90;;
26838;SDS011;40088;51.214;6.786;2023-12-20T23:01:03;9.90;;;5.32;;
26838;SDS011;40088;51.214;6.786;2023-12-20T23:11:03;10.57;;;7.63;;
26838;SDS011;40088;51.214;6.786;2023-12-20T23:21:04;10.73;;;6.83;;
26838;SDS011;40088;51.214;6.786;2023-12-20T23:31:05;10.90;;;6.80;;
26838;SDS011;40088;51.214;6.786;2023-12-20T23:41:07;6.88;;;5.28;;
26838;SDS011;40088;51.214;6.786;2023-12-20T23:51:07;7.32;;;4.63;;
